Time;durP1;ratioP1;P1;durP2;ratioP2;P2;SDS_P1;SDS_P2;PMS_P1;PMS_P2;Temp;Humidity;BMP_temperature;BMP_pressure;BME280_temperature;BME280_humidity;BME280_pressure;Samples;Min_cycle;Max_cycle;Signal;HPM_P1;HPM_P2
2024/03/30 00:01:23;;;;;;;4.20;2.07;;;;;;;19.94;51.95;95897.28;5044221;28;20205;-24
2024/03/30 00:03:49;;;;;;;2.07;1.50;;;;;;;19.95;51.99;95890.47;5057845;28;20253;-24
2024/03/30 00:06:15;;;;;;;3.13;2.00;;;;;;;19.94;51.87;95893.88;5052608;28;20280;-25
2024/03/30 00:08:41;;;;;;;2.97;1.90;;;;;;;19.91;52.40;95876.00;5043090;28;20221;-25
2024/03/30 00:11:06;;;;;;;3.43;1.90;;;;;;;19.95;52.42;95887.94;5049760;28;20203;-24
2024/03/30 00:13:33;;;;;;;3.17;2.10;;;;;;;19.94;52.07;95886.22;5045720;28;20200;-24
2024/03/30 00:16:05;;;;;;;2.40;1.87;;;;;;;19.94;52.04;95884.53;5057740;28;20669;-24
2024/03/30 00:18:31;;;;;;;2.33;1.80;;;;;;;19.94;52.04;95883.69;5039057;28;20220;-24
2024/03/30 00:20:56;;;;;;;4.17;1.97;;;;;;;19.95;51.98;95880.28;5052851;28;20277;-25
2024/03/30 00:23:22;;;;;;;2.77;1.73;;;;;;;19.92;51.97;95886.22;5058203;28;20295;-24
2024/03/30 00:25:54;;;;;;;5.00;1.70;;;;;;;19.92;51.95;95885.34;5050807;28;20203;-26
2024/03/30 00:28:20;;;;;;;5.00;2.00;;;;;;;19.92;52.14;95888.75;5047250;28;20238;-25
2024/03/30 00:30:45;;;;;;;4.33;2.10;;;;;;;19.92;52.24;95883.66;5057080;28;20293;-26
2024/03/30 00:33:12;;;;;;;3.87;1.83;;;;;;;19.92;51.99;95886.22;5048797;28;20469;-24
2024/03/30 00:35:38;;;;;;;2.37;1.77;;;;;;;19.93;52.16;95892.19;5055914;28;20670;-25
2024/03/30 00:38:04;;;;;;;3.63;2.00;;;;;;;19.94;52.02;95892.19;5043192;28;20251;-25
2024/03/30 00:40:30;;;;;;;3.23;1.80;;;;;;;19.93;52.04;95890.47;5055828;28;20200;-25
2024/03/30 00:42:55;;;;;;;2.90;1.97;;;;;;;19.92;52.12;95895.56;5050371;28;20279;-24
2024/03/30 00:45:21;;;;;;;3.43;2.00;;;;;;;19.93;51.98;95898.13;5056580;28;20287;-26
2024/03/30 00:47:47;;;;;;;2.63;1.80;;;;;;;19.92;51.88;95893.88;5045997;28;20412;-26
2024/03/30 00:50:13;;;;;;;3.57;1.90;;;;;;;19.94;51.94;95896.44;5045386;28;20224;-26
2024/03/30 00:52:38;;;;;;;2.83;1.73;;;;;;;19.95;51.93;95896.44;5035854;28;20205;-25
2024/03/30 00:55:04;;;;;;;3.50;1.70;;;;;;;19.94;51.90;95898.97;5055240;28;20275;-24
2024/03/30 00:57:30;;;;;;;2.10;1.67;;;;;;;19.94;52.23;95901.53;5054307;28;20240;-25
2024/03/30 00:59:56;;;;;;;2.87;1.90;;;;;;;19.92;51.97;95906.63;5046891;28;20262;-24
2024/03/30 01:02:21;;;;;;;3.07;1.83;;;;;;;19.92;51.99;95895.56;5052319;28;20211;-25
2024/03/30 01:04:47;;;;;;;3.53;1.87;;;;;;;19.92;52.15;95901.50;5057905;28;20658;-25
2024/03/30 01:07:12;;;;;;;2.60;1.80;;;;;;;19.92;52.14;95904.06;5056313;28;20212;-25
2024/03/30 01:09:38;;;;;;;4.70;2.40;;;;;;;19.94;52.50;95901.53;5039192;28;20228;-24
2024/03/30 01:12:04;;;;;;;5.13;1.80;;;;;;;19.93;51.97;95895.56;5052022;28;20200;-24
2024/03/30 01:14:33;;;;;;;1.80;1.70;;;;;;;19.93;51.98;95895.56;5049864;28;20254;-25
2024/03/30 01:16:59;;;;;;;4.37;1.90;;;;;;;19.93;52.05;95905.75;5064693;28;20236;-25
2024/03/30 01:19:25;;;;;;;3.83;1.80;;;;;;;19.94;51.98;95902.41;5051028;28;20204;-24
2024/03/30 01:21:51;;;;;;;3.90;2.10;;;;;;;19.94;52.04;95907.50;5058016;28;20204;-24
2024/03/30 01:24:17;;;;;;;4.50;2.00;;;;;;;19.94;51.95;95898.97;5047819;28;20200;-24
2024/03/30 01:26:51;;;;;;;3.50;1.90;;;;;;;19.93;51.95;95898.13;5040684;28;20220;-24
2024/03/30 01:29:19;;;;;;;2.93;1.80;;;;;;;19.92;52.08;95898.09;5042246;28;20487;-25
2024/03/30 01:31:45;;;;;;;2.47;1.70;;;;;;;19.93;52.12;95898.13;5018575;28;20228;-25
2024/03/30 01:34:10;;;;;;;3.03;2.10;;;;;;;19.93;52.08;95902.38;5054215;28;20204;-25
2024/03/30 01:36:36;;;;;;;3.47;1.70;;;;;;;19.91;52.13;95902.38;5052636;28;20201;-26
2024/03/30 01:39:03;;;;;;;4.40;1.87;;;;;;;19.92;52.08;95905.75;5051541;28;20216;-25
2024/03/30 01:41:28;;;;;;;8.77;2.27;;;;;;;19.92;52.25;95904.06;5051754;28;20200;-24
2024/03/30 01:43:54;;;;;;;4.07;2.17;;;;;;;19.93;52.23;95910.03;5065721;28;20203;-26
2024/03/30 01:46:20;;;;;;;3.47;2.00;;;;;;;19.94;52.28;95909.19;5050991;28;20208;-25
2024/03/30 01:48:46;;;;;;;4.30;1.90;;;;;;;19.93;52.04;95908.31;5057299;28;20234;-33
2024/03/30 01:51:11;;;;;;;4.67;2.03;;;;;;;19.94;52.16;95922.78;5034655;28;20217;-25
2024/03/30 01:53:38;;;;;;;5.53;2.40;;;;;;;19.89;52.00;95910.81;5053013;28;20757;-25
2024/03/30 01:56:03;;;;;;;6.47;2.40;;;;;;;19.94;52.14;95919.38;5038444;28;20209;-25
2024/03/30 01:58:29;;;;;;;4.20;2.10;;;;;;;19.93;52.04;95917.69;5062907;28;20774;-25
2024/03/30 02:00:55;;;;;;;5.63;2.27;;;;;;;19.89;51.88;95915.91;5050664;28;20211;-26
2024/03/30 02:03:22;;;;;;;4.80;1.90;;;;;;;19.89;52.25;95910.81;5026241;28;20729;-25
2024/03/30 02:05:48;;;;;;;4.23;2.27;;;;;;;19.93;52.22;95918.50;5046354;28;20205;-25
2024/03/30 02:08:14;;;;;;;2.83;1.90;;;;;;;19.94;52.43;95916.81;5052064;28;20215;-27
2024/03/30 02:10:40;;;;;;;5.43;2.23;;;;;;;19.94;52.08;95925.34;5049987;28;20612;-25
2024/03/30 02:13:06;;;;;;;4.23;1.70;;;;;;;19.95;52.05;95918.53;5056132;28;20204;-25
2024/03/30 02:15:31;;;;;;;5.20;2.13;;;;;;;19.94;52.29;95917.69;5042675;28;20251;-25
2024/03/30 02:17:57;;;;;;;6.30;2.43;;;;;;;19.95;52.13;95916.84;5023488;28;20224;-26
2024/03/30 02:20:23;;;;;;;4.10;1.80;;;;;;;19.96;52.14;95923.63;5041827;28;20284;-25
2024/03/30 02:22:52;;;;;;;5.20;2.43;;;;;;;19.97;52.19;95916.84;5027596;28;20200;-26
2024/03/30 02:25:19;;;;;;;4.77;2.17;;;;;;;19.95;52.36;95913.44;5034371;28;20196;-26
2024/03/30 02:27:44;;;;;;;4.13;2.20;;;;;;;19.92;52.28;95905.75;5042555;28;20216;-26
2024/03/30 02:30:10;;;;;;;5.57;2.30;;;;;;;19.99;52.16;95915.19;5047822;28;20672;-26
2024/03/30 02:32:36;;;;;;;4.60;2.23;;;;;;;19.99;52.07;95910.09;5035924;28;20208;-25
2024/03/30 02:35:02;;;;;;;4.40;2.17;;;;;;;19.98;51.79;95912.63;5036495;28;20283;-26
2024/03/30 02:37:27;;;;;;;4.03;2.20;;;;;;;19.98;52.02;95910.06;5059194;28;20248;-25
2024/03/30 02:39:53;;;;;;;7.03;2.00;;;;;;;19.97;52.08;95914.31;5042981;28;20274;-25
2024/03/30 02:42:18;;;;;;;4.97;1.90;;;;;;;19.98;52.00;95918.56;5044856;28;20671;-25
2024/03/30 02:44:44;;;;;;;6.47;2.40;;;;;;;19.96;52.01;95905.78;5053642;28;20644;-25
2024/03/30 02:47:10;;;;;;;3.10;1.93;;;;;;;19.94;52.09;95893.88;5056173;28;20322;-25
2024/03/30 02:49:35;;;;;;;3.13;2.07;;;;;;;19.98;52.03;95903.25;5048197;28;21284;-27
2024/03/30 02:52:01;;;;;;;2.87;1.90;;;;;;;19.97;52.02;95899.00;5054216;28;20219;-26
2024/03/30 02:54:26;;;;;;;5.23;2.40;;;;;;;19.97;52.09;95901.56;5058264;28;20212;-28
2024/03/30 02:56:52;;;;;;;4.13;2.10;;;;;;;19.94;52.15;95902.41;5045413;28;20276;-25
2024/03/30 02:59:18;;;;;;;6.60;2.63;;;;;;;19.98;52.16;95892.22;5048207;28;20197;-26
2024/03/30 03:01:45;;;;;;;3.80;2.13;;;;;;;19.97;52.13;95901.56;5057951;28;20196;-25
2024/03/30 03:04:11;;;;;;;5.67;2.10;;;;;;;19.97;51.99;95899.00;5057624;28;20216;-25
2024/03/30 03:06:37;;;;;;;3.63;1.80;;;;;;;19.98;52.08;95902.44;5053321;28;20208;-25
2024/03/30 03:09:05;;;;;;;4.43;2.30;;;;;;;19.95;52.00;95896.44;5038695;28;20838;-25
2024/03/30 03:11:31;;;;;;;4.90;2.20;;;;;;;19.98;51.91;95905.81;5056752;28;20215;-25
2024/03/30 03:13:56;;;;;;;3.27;2.10;;;;;;;19.94;51.90;95893.88;5058497;28;20203;-25
2024/03/30 03:16:22;;;;;;;3.13;2.07;;;;;;;19.95;51.99;95890.47;5053982;28;20299;-26
2024/03/30 03:18:47;;;;;;;4.37;2.30;;;;;;;19.99;52.09;95892.25;5034600;28;20632;-31
2024/03/30 03:21:13;;;;;;;4.67;2.17;;;;;;;19.84;51.98;95861.50;5052950;28;20200;-27
2024/03/30 03:23:40;;;;;;;6.00;2.10;;;;;;;19.98;52.17;95883.72;5056184;28;20289;-25
2024/03/30 03:26:05;;;;;;;5.57;2.40;;;;;;;19.99;51.97;95882.88;5054637;28;20204;-25
2024/03/30 03:28:31;;;;;;;3.57;1.90;;;;;;;19.98;52.12;95880.31;5052632;28;20220;-25
2024/03/30 03:30:57;;;;;;;6.77;2.33;;;;;;;19.98;52.09;95881.19;5044444;28;20231;-25
2024/03/30 03:33:22;;;;;;;5.73;2.50;;;;;;;19.99;52.19;95890.53;5042286;28;20205;-25
2024/03/30 03:35:48;;;;;;;7.17;2.27;;;;;;;19.91;52.22;95869.22;5050538;28;20663;-27
2024/03/30 03:38:14;;;;;;;4.83;2.30;;;;;;;19.99;51.97;95887.13;5045253;28;20213;-25
2024/03/30 03:40:39;;;;;;;5.83;2.50;;;;;;;20.00;52.06;95886.28;5040678;28;20193;-25
2024/03/30 03:43:05;;;;;;;4.97;2.10;;;;;;;19.95;52.05;95870.94;5053708;28;20305;-25
2024/03/30 03:45:30;;;;;;;8.77;2.40;;;;;;;20.00;52.13;95878.63;5051091;28;20199;-27
2024/03/30 03:47:56;;;;;;;5.17;2.40;;;;;;;19.99;52.06;95876.94;5037128;28;20239;-25
2024/03/30 03:50:22;;;;;;;4.63;2.20;;;;;;;20.00;52.15;95878.63;5041560;28;20236;-25
2024/03/30 03:52:47;;;;;;;4.47;2.20;;;;;;;20.01;52.02;95872.69;5048599;28;20254;-25
2024/03/30 03:55:13;;;;;;;5.60;2.43;;;;;;;19.96;51.94;95867.53;5050168;28;20230;-26
2024/03/30 03:57:38;;;;;;;4.23;2.10;;;;;;;19.96;52.12;95865.00;5063956;28;20713;-26
2024/03/30 04:00:05;;;;;;;5.20;2.43;;;;;;;19.98;52.14;95869.28;5055999;28;20196;-26
2024/03/30 04:02:30;;;;;;;4.97;2.47;;;;;;;19.98;52.07;95862.47;5062670;28;20223;-25
2024/03/30 04:04:56;;;;;;;5.43;2.27;;;;;;;19.96;52.07;95856.50;5034574;28;20228;-27
2024/03/30 04:07:21;;;;;;;6.63;2.70;;;;;;;19.98;52.26;95859.91;5047240;28;20230;-27
2024/03/30 04:09:50;;;;;;;4.87;2.50;;;;;;;19.93;52.12;95847.13;5055783;28;20212;-25
2024/03/30 04:12:16;;;;;;;3.90;2.07;;;;;;;19.91;52.02;95841.19;5046046;28;20209;-25
2024/03/30 04:14:42;;;;;;;3.23;2.10;;;;;;;19.96;52.06;95854.81;5037869;28;20205;-27
2024/03/30 04:17:07;;;;;;;6.40;2.50;;;;;;;19.95;52.14;95852.25;5047763;28;20265;-25
2024/03/30 04:19:33;;;;;;;3.37;1.90;;;;;;;19.99;52.23;95861.66;5053220;28;20223;-25
2024/03/30 04:22:01;;;;;;;7.40;2.30;;;;;;;20.00;51.94;95863.34;5054019;28;20203;-25
2024/03/30 04:24:27;;;;;;;5.87;2.60;;;;;;;19.99;52.03;95854.81;5063362;28;20241;-25
2024/03/30 04:26:53;;;;;;;3.40;2.13;;;;;;;20.01;52.08;95856.56;5063590;28;20216;-25
2024/03/30 04:29:18;;;;;;;3.23;2.30;;;;;;;19.98;51.99;95854.81;5055760;28;20303;-27
2024/03/30 04:31:44;;;;;;;6.03;2.70;;;;;;;19.98;52.21;95853.13;5036037;28;20201;-25
2024/03/30 04:34:09;;;;;;;5.83;2.23;;;;;;;19.94;52.03;95848.00;5053493;28;20611;-25
2024/03/30 04:36:35;;;;;;;4.90;2.23;;;;;;;19.98;52.13;95867.56;5052113;28;20196;-25
2024/03/30 04:39:01;;;;;;;3.10;2.20;;;;;;;19.98;52.14;95867.56;5049966;28;20224;-26
2024/03/30 04:41:26;;;;;;;5.97;2.27;;;;;;;19.96;52.13;95856.50;5053890;28;20204;-25
2024/03/30 04:43:52;;;;;;;4.73;2.30;;;;;;;19.95;51.97;95859.88;5052640;28;20201;-25
2024/03/30 04:46:18;;;;;;;5.20;2.17;;;;;;;19.96;51.94;95857.34;5056240;28;20283;-25
2024/03/30 04:48:45;;;;;;;4.93;2.40;;;;;;;19.89;52.12;95837.75;5050557;28;20228;-25
2024/03/30 04:51:11;;;;;;;4.20;2.50;;;;;;;19.98;51.94;95852.25;5055152;28;20235;-25
2024/03/30 04:53:36;;;;;;;5.90;2.20;;;;;;;19.98;52.14;95854.81;5045178;28;20251;-25
2024/03/30 04:56:02;;;;;;;6.60;2.50;;;;;;;19.98;52.11;95847.16;5033624;28;20215;-25
2024/03/30 04:58:30;;;;;;;3.33;2.10;;;;;;;19.97;52.13;95848.03;5053471;28;20262;-25
2024/03/30 05:01:05;;;;;;;6.43;2.60;;;;;;;19.98;52.03;95851.44;5032340;28;20686;-29
2024/03/30 05:03:31;;;;;;;5.13;2.20;;;;;;;19.97;52.08;95845.47;5055073;28;20208;-25
2024/03/30 05:05:57;;;;;;;6.43;2.40;;;;;;;19.98;52.18;95841.22;5046307;28;20656;-26
2024/03/30 05:08:23;;;;;;;4.83;2.37;;;;;;;19.96;52.05;95833.56;5059849;28;20295;-28
2024/03/30 05:10:50;;;;;;;5.83;2.50;;;;;;;19.97;52.19;95835.28;5052729;28;20693;-25
2024/03/30 05:13:16;;;;;;;7.27;2.40;;;;;;;19.98;51.95;95845.47;5056609;28;20262;-25
2024/03/30 05:15:42;;;;;;;6.80;2.77;;;;;;;19.97;52.11;95837.81;5057502;28;20207;-25
2024/03/30 05:18:11;;;;;;;5.30;2.30;;;;;;;19.94;51.90;95836.09;5055693;28;20228;-25
2024/03/30 05:20:49;;;;;;;4.80;2.27;;;;;;;19.95;52.08;95836.94;5058351;28;20208;-25
2024/03/30 05:23:17;;;;;;;6.60;2.80;;;;;;;19.96;52.09;95838.66;5052615;28;20619;-26
2024/03/30 05:25:43;;;;;;;4.13;2.50;;;;;;;19.95;52.13;95834.38;5056958;28;20626;-25
2024/03/30 05:28:08;;;;;;;6.77;2.60;;;;;;;19.95;52.40;95832.72;5047213;28;20260;-25
2024/03/30 05:30:35;;;;;;;4.80;2.57;;;;;;;19.92;52.35;95825.03;5045474;28;20604;-25
2024/03/30 05:33:00;;;;;;;5.97;2.53;;;;;;;19.96;52.00;95820.81;5049137;28;20200;-27
2024/03/30 05:35:26;;;;;;;5.13;2.40;;;;;;;19.96;52.23;95805.53;5052115;28;20552;-25
2024/03/30 05:37:51;;;;;;;6.27;2.40;;;;;;;19.95;52.15;95794.47;5046004;28;20231;-28
2024/03/30 05:40:17;;;;;;;4.63;2.23;;;;;;;19.97;52.11;95797.03;5047685;28;20279;-26
2024/03/30 05:42:43;;;;;;;8.23;2.70;;;;;;;19.90;52.26;95782.53;5040045;28;20323;-25
2024/03/30 05:45:08;;;;;;;6.07;2.87;;;;;;;19.96;52.11;95787.69;5047319;28;20241;-25
2024/03/30 05:47:34;;;;;;;5.10;2.40;;;;;;;19.94;52.20;95789.34;5052665;28;20236;-26
2024/03/30 05:50:00;;;;;;;5.47;2.50;;;;;;;19.97;52.18;95799.56;5053120;28;20224;-25
2024/03/30 05:52:26;;;;;;;6.97;3.00;;;;;;;19.96;52.09;95802.97;5025374;28;20676;-25
2024/03/30 05:54:52;;;;;;;4.50;2.53;;;;;;;19.98;52.13;95810.63;5057258;28;20255;-26
2024/03/30 05:57:17;;;;;;;4.40;2.40;;;;;;;19.95;52.09;95814.88;5042646;28;20366;-25
2024/03/30 05:59:43;;;;;;;4.53;2.27;;;;;;;19.94;52.29;95802.09;5049430;28;20662;-25
2024/03/30 06:02:09;;;;;;;6.70;2.60;;;;;;;19.91;52.07;95791.88;5048151;28;20283;-25
2024/03/30 06:04:34;;;;;;;4.37;2.23;;;;;;;19.94;52.29;95808.06;5039886;28;20208;-26
2024/03/30 06:07:00;;;;;;;4.47;2.40;;;;;;;19.92;52.43;95788.47;5041484;28;20600;-25
2024/03/30 06:09:25;;;;;;;6.07;2.40;;;;;;;19.95;52.32;95793.59;5046189;28;20219;-31
2024/03/30 06:11:51;;;;;;;8.63;2.90;;;;;;;19.94;52.20;95792.78;5054816;28;20199;-27
2024/03/30 06:14:17;;;;;;;5.17;2.57;;;;;;;19.95;52.34;95791.06;5062111;28;20204;-26
2024/03/30 06:16:47;;;;;;;5.00;2.70;;;;;;;19.89;52.25;95778.25;5056073;28;20624;-26
2024/03/30 06:19:13;;;;;;;9.73;3.40;;;;;;;19.96;52.29;95788.50;5042673;28;20695;-25
2024/03/30 06:21:38;;;;;;;4.57;2.50;;;;;;;19.94;52.17;95785.13;5044743;28;20208;-25
2024/03/30 06:24:04;;;;;;;6.13;2.37;;;;;;;19.96;52.19;95798.72;5059789;28;20282;-25
2024/03/30 06:26:30;;;;;;;4.23;2.50;;;;;;;19.96;52.01;95798.72;5038116;28;20204;-25
2024/03/30 06:28:56;;;;;;;4.90;2.50;;;;;;;19.96;52.20;95785.13;5046040;28;20221;-26
2024/03/30 06:31:21;;;;;;;5.30;2.37;;;;;;;19.96;52.15;95785.97;5047996;28;20231;-26
2024/03/30 06:33:48;;;;;;;5.03;2.30;;;;;;;19.96;52.12;95785.13;5055803;28;20577;-25
2024/03/30 06:36:13;;;;;;;5.20;2.63;;;;;;;19.99;52.20;95797.91;5041492;28;20228;-27
2024/03/30 06:38:39;;;;;;;4.53;2.40;;;;;;;19.99;52.39;95808.09;5052618;28;20227;-25
2024/03/30 06:43:49;;;;;;;7.03;2.70;;;;;;;19.92;52.31;95814.84;5048784;28;20545;-25
2024/03/30 06:46:14;;;;;;;6.30;2.47;;;;;;;19.92;52.32;95811.41;5063211;28;20281;-25
2024/03/30 06:48:40;;;;;;;6.40;2.53;;;;;;;19.98;52.29;95814.03;5043320;28;20240;-34
2024/03/30 06:51:06;;;;;;;6.93;3.00;;;;;;;19.98;52.42;95807.25;5051039;28;20222;-25
2024/03/30 06:53:31;;;;;;;5.50;2.90;;;;;;;19.98;52.27;95791.06;5055848;28;20203;-26
2024/03/30 06:55:57;;;;;;;6.03;2.63;;;;;;;19.99;52.29;95790.25;5044298;28;20211;-25
2024/03/30 06:58:23;;;;;;;9.17;2.97;;;;;;;19.99;52.23;95783.44;5042507;28;20270;-27
2024/03/30 07:00:49;;;;;;;14.60;3.67;;;;;;;20.01;52.32;95787.72;5051277;28;20197;-32
2024/03/30 07:03:15;;;;;;;9.60;3.57;;;;;;;19.99;52.16;95780.06;5043696;28;20667;-27
2024/03/30 07:05:44;;;;;;;12.13;3.40;;;;;;;20.02;51.88;95789.41;5056106;28;20280;-27
2024/03/30 07:08:09;;;;;;;13.97;3.03;;;;;;;20.01;52.08;95796.19;5049163;28;20220;-25
2024/03/30 07:10:35;;;;;;;8.63;3.10;;;;;;;20.01;51.81;95803.84;5049709;28;20625;-32
2024/03/30 07:13:01;;;;;;;18.27;3.43;;;;;;;20.00;51.72;95809.78;5057759;28;20246;-25
2024/03/30 07:15:27;;;;;;;7.80;2.80;;;;;;;19.98;51.92;95791.94;5042419;28;20250;-26
2024/03/30 07:17:53;;;;;;;19.17;3.67;;;;;;;19.99;51.81;95797.91;5054522;28;20722;-25
2024/03/30 07:20:19;;;;;;;25.33;3.37;;;;;;;19.99;52.06;95792.81;5049712;28;20197;-25
2024/03/30 07:22:45;;;;;;;14.50;3.10;;;;;;;20.01;51.88;95792.81;5045982;28;20205;-25
2024/03/30 07:25:11;;;;;;;12.33;3.00;;;;;;;19.99;51.77;95785.16;5036072;28;20212;-25
2024/03/30 07:27:36;;;;;;;12.43;2.90;;;;;;;19.99;52.02;95780.88;5040697;28;20224;-25
2024/03/30 07:30:02;;;;;;;11.77;3.17;;;;;;;20.01;51.78;95786.00;5029573;28;20278;-30
2024/03/30 07:32:28;;;;;;;8.50;3.10;;;;;;;20.01;51.88;95786.00;5050960;28;20260;-27
2024/03/30 07:34:53;;;;;;;9.77;3.70;;;;;;;20.01;51.83;95795.38;5044257;28;20204;-27
2024/03/30 07:37:19;;;;;;;14.57;3.57;;;;;;;19.96;51.83;95795.31;5059918;28;20224;-25
2024/03/30 07:39:45;;;;;;;14.60;3.83;;;;;;;19.86;51.98;95771.44;5055639;28;20282;-25
2024/03/30 07:42:10;;;;;;;13.87;3.17;;;;;;;20.02;51.91;95800.47;5031511;28;20204;-26
2024/03/30 07:44:36;;;;;;;11.20;3.27;;;;;;;19.97;51.77;95794.47;5048010;28;20197;-25
2024/03/30 07:47:04;;;;;;;15.87;3.70;;;;;;;20.00;51.85;95794.50;5056600;28;20231;-25
2024/03/30 07:49:32;;;;;;;14.53;4.27;;;;;;;20.01;51.75;95793.66;5044976;28;20263;-25
2024/03/30 07:51:57;;;;;;;13.50;3.70;;;;;;;19.98;51.57;95780.88;5056952;28;20603;-25
2024/03/30 07:54:23;;;;;;;19.77;4.53;;;;;;;19.96;51.91;95785.13;5046508;28;20197;-26
2024/03/30 07:56:55;;;;;;;12.40;3.80;;;;;;;19.92;51.99;95780.84;5054144;28;20199;-25
2024/03/30 07:59:21;;;;;;;13.23;4.03;;;;;;;19.96;51.97;95777.47;5050350;28;20208;-26
2024/03/30 08:01:47;;;;;;;17.90;3.67;;;;;;;19.98;52.07;95777.50;5053890;28;20208;-25
2024/03/30 08:04:14;;;;;;;13.90;3.97;;;;;;;19.90;52.23;95762.97;5048920;28;20200;-25
2024/03/30 08:06:41;;;;;;;15.70;4.13;;;;;;;19.95;52.05;95774.06;5051713;28;20212;-25
2024/03/30 08:09:08;;;;;;;12.30;3.57;;;;;;;19.97;52.02;95776.63;5048497;28;20628;-25
2024/03/30 08:11:33;;;;;;;13.23;4.27;;;;;;;19.96;51.77;95780.88;5056480;28;20204;-25
2024/03/30 08:13:59;;;;;;;15.80;4.27;;;;;;;19.96;51.87;95775.78;5054769;28;20259;-25
2024/03/30 08:16:25;;;;;;;17.50;5.00;;;;;;;19.98;51.82;95777.50;5051286;28;20635;-25
2024/03/30 08:18:51;;;;;;;15.00;3.90;;;;;;;19.95;51.46;95768.97;5051715;28;20224;-25
2024/03/30 08:21:17;;;;;;;16.20;4.53;;;;;;;19.96;51.89;95769.84;5055051;28;20192;-26
2024/03/30 08:23:42;;;;;;;16.53;4.17;;;;;;;19.95;51.78;95770.66;5054101;28;20291;-26
2024/03/30 08:26:08;;;;;;;16.83;4.43;;;;;;;19.97;51.81;95779.19;5048791;28;20626;-25
2024/03/30 08:28:33;;;;;;;14.13;4.43;;;;;;;19.93;51.95;95772.34;5056900;28;20228;-25
2024/03/30 08:30:59;;;;;;;13.23;3.90;;;;;;;19.94;51.92;95776.59;5042439;28;20217;-25
2024/03/30 08:33:24;;;;;;;14.47;4.27;;;;;;;19.93;51.76;95775.75;5049349;28;20212;-26
2024/03/30 08:35:53;;;;;;;11.33;3.97;;;;;;;19.91;51.90;95763.84;5053843;28;20208;-25
2024/03/30 08:38:19;;;;;;;13.50;4.37;;;;;;;19.93;51.90;95765.53;5055701;28;20713;-25
2024/03/30 08:40:45;;;;;;;15.23;4.20;;;;;;;19.91;51.82;95751.09;5053525;28;20192;-25
2024/03/30 08:43:11;;;;;;;16.37;4.37;;;;;;;19.94;51.96;95769.81;5035002;28;20201;-25
2024/03/30 08:45:36;;;;;;;16.67;4.10;;;;;;;19.93;51.73;95755.34;5055411;28;20592;-30
2024/03/30 08:48:02;;;;;;;14.43;3.60;;;;;;;19.92;51.79;95752.78;5045798;28;20280;-25
2024/03/30 08:50:28;;;;;;;19.07;4.20;;;;;;;19.93;51.61;95754.50;5046124;28;20322;-25
2024/03/30 08:52:53;;;;;;;17.03;4.00;;;;;;;19.91;51.74;95743.44;5033596;28;20259;-25
2024/03/30 08:55:19;;;;;;;12.73;4.07;;;;;;;19.93;51.81;95744.31;5052294;28;20207;-25
2024/03/30 08:57:44;;;;;;;12.33;4.10;;;;;;;19.90;51.81;95744.28;5047729;28;20268;-25
2024/03/30 09:00:10;;;;;;;12.40;4.10;;;;;;;19.90;51.71;95736.66;5050259;28;20205;-26
2024/03/30 09:02:37;;;;;;;15.87;4.53;;;;;;;19.94;51.80;95739.22;5054048;28;20200;-25
2024/03/30 09:05:04;;;;;;;18.50;4.37;;;;;;;19.76;51.70;95708.50;5053802;28;20227;-26
2024/03/30 09:07:29;;;;;;;11.97;3.80;;;;;;;19.93;51.82;95727.31;5044822;28;20228;-25
2024/03/30 09:09:55;;;;;;;16.97;4.50;;;;;;;19.92;51.77;95730.72;5047458;28;20220;-25
2024/03/30 09:12:20;;;;;;;12.73;3.70;;;;;;;19.95;52.06;95727.31;5050116;28;20208;-25
2024/03/30 09:14:46;;;;;;;22.57;4.17;;;;;;;19.96;52.01;95729.88;5051311;28;20208;-28
2024/03/30 09:17:12;;;;;;;18.60;5.00;;;;;;;19.97;51.88;95730.75;5048447;28;20294;-25
2024/03/30 09:19:38;;;;;;;13.87;4.10;;;;;;;19.98;51.78;95730.75;5053063;28;20192;-25
2024/03/30 09:22:04;;;;;;;20.63;4.27;;;;;;;19.85;51.62;95700.06;5053684;28;20204;-31
2024/03/30 09:24:30;;;;;;;16.30;4.33;;;;;;;20.02;51.80;95718.03;5048564;28;20600;-25
2024/03/30 09:26:56;;;;;;;16.10;4.10;;;;;;;20.01;51.70;95717.16;5050098;28;20201;-25
2024/03/30 09:29:23;;;;;;;13.60;4.07;;;;;;;19.97;51.64;95707.78;5054395;28;20223;-27
2024/03/30 09:31:48;;;;;;;17.50;4.77;;;;;;;20.04;52.25;95718.91;5048955;28;20267;-28
2024/03/30 09:34:14;;;;;;;14.23;3.90;;;;;;;19.84;51.60;95680.53;5054851;28;20207;-25
2024/03/30 09:36:39;;;;;;;12.00;4.00;;;;;;;20.05;51.49;95716.34;5049165;28;20231;-26
2024/03/30 09:39:05;;;;;;;15.43;4.10;;;;;;;20.06;52.03;95712.97;5054229;28;20663;-25
2024/03/30 09:41:36;;;;;;;14.77;4.23;;;;;;;20.00;51.76;95700.16;5048775;28;20205;-25
2024/03/30 09:44:04;;;;;;;15.10;3.87;;;;;;;20.05;51.90;95706.16;5038194;28;20655;-34
2024/03/30 09:46:29;;;;;;;16.00;3.77;;;;;;;20.06;51.61;95710.41;5022448;28;20212;-25
2024/03/30 09:48:55;;;;;;;15.60;4.10;;;;;;;20.06;51.49;95704.44;5038189;28;20425;-25
2024/03/30 09:51:21;;;;;;;13.67;4.43;;;;;;;20.07;51.36;95712.09;5023951;28;20225;-25
2024/03/30 09:53:46;;;;;;;13.57;3.90;;;;;;;20.06;51.69;95695.09;5021625;28;20208;-25
2024/03/30 09:56:12;;;;;;;14.83;4.20;;;;;;;20.10;51.74;95696.00;5024458;28;20207;-28
2024/03/30 09:58:37;;;;;;;11.33;4.03;;;;;;;20.09;51.81;95694.25;5038131;28;20315;-25
2024/03/30 10:01:04;;;;;;;10.47;3.83;;;;;;;20.08;51.49;95690.00;5021040;28;20208;-25
2024/03/30 10:03:30;;;;;;;10.43;3.50;;;;;;;20.08;51.86;95675.59;5046687;28;20217;-25
2024/03/30 10:05:55;;;;;;;12.73;3.97;;;;;;;20.11;51.57;95679.84;5033657;28;20262;-25
2024/03/30 10:08:24;;;;;;;9.97;3.53;;;;;;;20.06;51.44;95666.19;5023107;28;20229;-25
2024/03/30 10:10:54;;;;;;;8.13;3.53;;;;;;;20.08;51.65;95670.47;5012851;28;20227;-25
2024/03/30 10:13:32;;;;;;;10.83;3.70;;;;;;;20.09;51.49;95671.31;5041742;28;20201;-25
2024/03/30 10:15:57;;;;;;;12.07;3.93;;;;;;;20.11;51.57;95670.50;5020931;28;20207;-25
2024/03/30 10:18:23;;;;;;;8.83;3.67;;;;;;;20.09;51.75;95672.19;5037707;28;20228;-26
2024/03/30 10:20:48;;;;;;;13.83;4.23;;;;;;;20.08;51.57;95665.38;5023096;28;20201;-25
2024/03/30 10:23:14;;;;;;;12.20;3.67;;;;;;;20.07;51.82;95660.28;5061321;28;20342;-25
2024/03/30 10:25:51;;;;;;;10.63;3.83;;;;;;;20.11;51.56;95665.41;5034722;28;20219;-25
2024/03/30 10:28:17;;;;;;;10.40;3.80;;;;;;;20.13;51.71;95660.34;5046155;28;20220;-25
2024/03/30 10:30:42;;;;;;;10.63;3.63;;;;;;;20.11;51.66;95665.41;5044943;28;20819;-25
2024/03/30 10:33:12;;;;;;;12.07;3.57;;;;;;;20.15;51.77;95663.72;5026477;28;20204;-25
2024/03/30 10:35:38;;;;;;;16.37;3.90;;;;;;;20.15;51.58;95671.38;5045031;28;20204;-30
2024/03/30 10:38:05;;;;;;;10.53;3.73;;;;;;;20.14;51.75;95656.94;5038663;28;20381;-25
2024/03/30 10:40:31;;;;;;;8.30;3.20;;;;;;;20.15;51.59;95659.50;5054162;28;20677;-25
2024/03/30 10:42:57;;;;;;;8.60;3.83;;;;;;;20.16;51.75;95657.81;5043113;28;20208;-26
2024/03/30 10:45:25;;;;;;;10.13;3.00;;;;;;;20.14;51.70;95654.38;5044547;28;20635;-25
2024/03/30 10:47:54;;;;;;;10.23;3.40;;;;;;;20.10;51.65;95653.47;5037176;28;20723;-25
2024/03/30 10:50:20;;;;;;;7.00;2.87;;;;;;;20.08;51.67;95642.44;5053729;28;20243;-25
2024/03/30 10:52:45;;;;;;;8.87;2.87;;;;;;;20.16;51.56;95665.44;5052840;28;20208;-25
2024/03/30 10:55:11;;;;;;;13.90;3.87;;;;;;;20.14;51.59;95660.34;5039112;28;20622;-25
2024/03/30 10:57:36;;;;;;;7.03;3.07;;;;;;;19.94;51.62;95621.09;5045795;28;20228;-33
2024/03/30 11:00:06;;;;;;;12.57;3.60;;;;;;;20.12;51.89;95658.56;5006382;28;20196;-28
2024/03/30 11:02:32;;;;;;;10.60;3.53;;;;;;;20.15;51.95;95659.50;5054597;28;20204;-25
2024/03/30 11:04:58;;;;;;;9.47;3.33;;;;;;;20.17;51.51;95659.50;5020731;28;20329;-25
2024/03/30 11:07:23;;;;;;;10.57;3.33;;;;;;;20.16;51.63;95656.09;5028714;28;20224;-25
2024/03/30 11:09:49;;;;;;;9.27;3.30;;;;;;;20.11;51.68;95641.59;5020573;28;20247;-28
2024/03/30 11:12:15;;;;;;;9.63;3.67;;;;;;;20.16;51.59;95647.59;5017013;28;20312;-25
2024/03/30 11:14:41;;;;;;;11.27;3.47;;;;;;;20.16;51.61;95650.16;5048385;28;20204;-25
2024/03/30 11:17:22;;;;;;;10.67;3.07;;;;;;;20.16;51.80;95658.63;5048441;28;20221;-25
2024/03/30 11:19:57;;;;;;;7.70;2.73;;;;;;;20.14;51.69;95649.28;5038107;28;20196;-28
2024/03/30 11:22:34;;;;;;;8.87;3.07;;;;;;;20.15;51.52;95659.50;5009581;28;20205;-26
2024/03/30 11:25:00;;;;;;;10.90;3.37;;;;;;;20.13;51.50;95653.53;5042090;28;20568;-27
2024/03/30 11:27:32;;;;;;;10.07;3.20;;;;;;;20.16;51.59;95652.69;5009135;28;20339;-27
2024/03/30 11:30:08;;;;;;;10.30;3.07;;;;;;;20.14;51.68;95657.78;5047803;28;20718;-27